Terminal Aerodrome Forecast
Issued by NWS

Home | Current Version | Previous Version | Text Only | Print | Product List | Glossary On
Versions: 1 2 3 4 5 6 7 8 9 10 11 12 13 14 15 16 17 18 19 20 21 22 23 24 25 26 27 28 29 30
000
FTUS46 KLOX 300534 CCA
TAFLAX
TAF COR
KLAX 300534Z 3006/0112 22008KT P6SM FEW015 SCT250
     FM300630 25005KT P6SM OVC017
     FM300800 12004KT P6SM OVC022
     FM301200 11007KT 6SM -DZ BR BKN014 OVC027
     FM301800 25012KT P6SM BKN030
     FM302000 25014G20KT P6SM SCT030 SCT060
     FM010300 25008KT P6SM SCT015 SCT060
     FM010500 VRB03KT P6SM BKN015=

USA.gov is the U.S. government's official web portal to all federal, state and local government web resources and services.